createdAt,value
2019-03-13T00:01:04.450Z,51.00
2019-03-13T00:03:32.731Z,51.00
2019-03-13T00:06:01.382Z,50.90
2019-03-13T00:08:29.966Z,50.80
2019-03-13T00:10:58.554Z,50.90
2019-03-13T00:13:26.797Z,50.70
2019-03-13T00:15:55.063Z,50.90
2019-03-13T00:18:23.340Z,51.00
2019-03-13T00:20:51.737Z,51.00
2019-03-13T00:23:20.000Z,51.00
2019-03-13T00:25:48.266Z,51.00
2019-03-13T00:28:16.521Z,51.10
2019-03-13T00:30:44.891Z,51.10
2019-03-13T00:33:13.259Z,51.10
2019-03-13T00:35:41.541Z,51.10
2019-03-13T00:38:09.818Z,51.20
2019-03-13T00:40:38.098Z,51.20
2019-03-13T00:43:06.361Z,51.20
2019-03-13T00:45:34.631Z,51.20
2019-03-13T00:48:03.001Z,51.20
2019-03-13T00:50:32.662Z,51.20
2019-03-13T00:53:01.301Z,51.20
2019-03-13T00:55:29.559Z,51.30
2019-03-13T00:57:57.840Z,51.20
2019-03-13T01:00:30.520Z,51.30
2019-03-13T01:02:58.864Z,51.30
2019-03-13T01:05:28.750Z,51.30
2019-03-13T01:07:57.026Z,51.40
2019-03-13T01:10:25.614Z,51.40
2019-03-13T01:12:53.902Z,51.40
2019-03-13T01:15:22.163Z,51.40
2019-03-13T01:17:50.758Z,51.40
2019-03-13T01:20:19.534Z,51.50
2019-03-13T01:22:47.812Z,51.40
2019-03-13T01:25:16.421Z,51.50
2019-03-13T01:27:44.695Z,51.50
2019-03-13T01:30:14.183Z,51.60
2019-03-13T01:32:44.096Z,51.50
2019-03-13T01:35:30.190Z,51.50
2019-03-13T01:37:58.803Z,51.40
2019-03-13T01:40:27.472Z,51.40
2019-03-13T01:42:55.809Z,51.50
2019-03-13T01:45:24.080Z,51.50
2019-03-13T01:47:52.342Z,51.60
2019-03-13T01:50:20.597Z,51.50
2019-03-13T01:52:48.881Z,51.40
2019-03-13T01:55:17.363Z,51.50
2019-03-13T01:57:45.918Z,51.50
2019-03-13T02:00:15.747Z,51.40
2019-03-13T02:02:44.091Z,51.50
2019-03-13T02:05:12.342Z,51.40
2019-03-13T02:07:40.601Z,51.40
2019-03-13T02:10:11.179Z,51.40
2019-03-13T02:12:39.442Z,51.40
2019-03-13T02:15:17.073Z,51.40
2019-03-13T02:17:45.657Z,51.50
2019-03-13T02:20:14.095Z,51.50
2019-03-13T02:22:42.534Z,51.60
2019-03-13T02:25:12.419Z,51.60
2019-03-13T02:27:40.674Z,51.60
2019-03-13T02:30:20.096Z,51.50
2019-03-13T02:32:48.351Z,51.50
2019-03-13T02:35:16.678Z,51.40
2019-03-13T02:37:44.986Z,51.30
2019-03-13T02:40:15.082Z,51.30
2019-03-13T02:42:43.702Z,51.20
2019-03-13T02:45:13.106Z,51.10
2019-03-13T02:47:41.393Z,51.10
2019-03-13T02:50:12.422Z,51.10
2019-03-13T02:52:40.703Z,51.10
2019-03-13T02:55:10.602Z,51.10
2019-03-13T02:57:38.861Z,51.10
2019-03-13T03:00:13.044Z,51.20
2019-03-13T03:02:43.011Z,51.20
2019-03-13T03:05:11.333Z,51.10
2019-03-13T03:07:39.584Z,51.10
2019-03-13T03:10:11.026Z,51.00
2019-03-13T03:12:39.331Z,51.00
2019-03-13T03:15:11.263Z,50.80
2019-03-13T03:17:39.570Z,50.90
2019-03-13T03:20:10.711Z,50.80
2019-03-13T03:22:38.962Z,50.80
2019-03-13T03:25:10.525Z,50.70
2019-03-13T03:27:38.777Z,50.60
2019-03-13T03:30:10.865Z,50.60
2019-03-13T03:32:39.562Z,50.50
2019-03-13T03:35:07.924Z,50.60
2019-03-13T03:37:36.495Z,50.60
2019-03-13T03:40:11.356Z,50.50
2019-03-13T03:42:39.628Z,50.50
2019-03-13T03:45:09.617Z,50.60
2019-03-13T03:47:38.290Z,50.50
2019-03-13T03:50:12.999Z,50.50
2019-03-13T03:52:41.329Z,50.30
2019-03-13T03:55:11.114Z,50.40
2019-03-13T03:57:39.751Z,50.30
2019-03-13T04:00:11.299Z,50.30
2019-03-13T04:02:39.871Z,50.30
2019-03-13T04:05:08.885Z,50.30
2019-03-13T04:07:37.243Z,50.10
2019-03-13T04:10:07.804Z,50.10
2019-03-13T04:12:36.100Z,50.10
2019-03-13T04:15:07.458Z,50.10
2019-03-13T04:17:35.751Z,50.00
2019-03-13T04:20:06.555Z,50.10
2019-03-13T04:22:34.836Z,50.00
2019-03-13T04:25:27.589Z,50.00
2019-03-13T04:27:56.441Z,50.00
2019-03-13T04:30:24.705Z,49.90
2019-03-13T04:32:52.982Z,50.00
2019-03-13T04:35:21.599Z,49.90
2019-03-13T04:37:49.875Z,50.00
2019-03-13T04:40:18.154Z,49.80
2019-03-13T04:42:46.478Z,49.80
2019-03-13T04:45:15.103Z,49.70
2019-03-13T04:47:43.547Z,49.70
2019-03-13T04:50:14.398Z,49.80
2019-03-13T04:52:42.667Z,49.90
2019-03-13T04:55:14.367Z,50.00
2019-03-13T04:57:42.639Z,50.00
2019-03-13T05:00:20.145Z,50.00
2019-03-13T05:02:48.427Z,50.00
2019-03-13T05:05:44.667Z,50.00
2019-03-13T05:08:27.779Z,50.00
2019-03-13T05:10:56.051Z,50.00
2019-03-13T05:13:24.323Z,50.20
2019-03-13T05:15:52.578Z,50.10
2019-03-13T05:18:20.834Z,50.10
2019-03-13T05:20:49.097Z,50.10
2019-03-13T05:23:17.710Z,50.00
2019-03-13T05:25:45.984Z,49.80
2019-03-13T05:28:14.337Z,46.90
2019-03-13T05:30:43.034Z,47.50
2019-03-13T05:33:11.338Z,44.50
2019-03-13T05:35:39.618Z,44.50
2019-03-13T05:38:08.218Z,44.30
2019-03-13T05:40:36.493Z,44.20
2019-03-13T05:43:04.769Z,44.20
2019-03-13T05:45:33.054Z,43.90
2019-03-13T05:48:01.339Z,44.00
2019-03-13T05:50:31.589Z,43.80
2019-03-13T05:52:59.577Z,43.60
2019-03-13T05:55:27.865Z,43.70
2019-03-13T05:57:56.149Z,43.70
2019-03-13T06:00:25.369Z,43.60
2019-03-13T06:02:53.762Z,43.50
2019-03-13T06:05:22.022Z,43.20
2019-03-13T06:07:50.277Z,43.30
2019-03-13T06:10:18.548Z,43.10
2019-03-13T06:12:46.806Z,43.50
2019-03-13T06:15:16.128Z,43.80
2019-03-13T06:17:44.470Z,44.50
2019-03-13T06:20:17.026Z,45.20
2019-03-13T06:22:45.354Z,45.20
2019-03-13T06:25:14.368Z,45.60
2019-03-13T06:27:45.934Z,45.70
2019-03-13T06:30:20.274Z,45.20
2019-03-13T06:32:48.595Z,45.40
2019-03-13T06:35:16.991Z,44.80
2019-03-13T06:37:45.264Z,44.40
2019-03-13T06:40:20.615Z,44.80
2019-03-13T06:42:48.931Z,45.20
2019-03-13T06:45:17.614Z,45.60
2019-03-13T06:47:46.006Z,46.00
2019-03-13T06:50:17.618Z,46.00
2019-03-13T06:52:46.258Z,46.30
2019-03-13T06:55:14.707Z,46.40
2019-03-13T06:57:42.990Z,46.30
2019-03-13T07:00:30.885Z,46.40
2019-03-13T07:03:06.522Z,46.50
2019-03-13T07:05:39.380Z,46.40
2019-03-13T07:08:15.057Z,46.40
2019-03-13T07:11:01.268Z,46.60
2019-03-13T07:13:46.347Z,46.90
2019-03-13T07:16:34.535Z,46.70
2019-03-13T07:19:07.806Z,47.10
2019-03-13T07:21:43.788Z,47.20
2019-03-13T07:24:19.603Z,47.30
2019-03-13T07:26:51.412Z,47.30
2019-03-13T07:29:37.640Z,47.40
2019-03-13T07:32:10.539Z,47.50
2019-03-13T07:34:57.495Z,47.50
2019-03-13T07:37:43.839Z,47.70
2019-03-13T07:40:26.059Z,47.60
2019-03-13T07:43:01.387Z,47.50
2019-03-13T07:45:36.981Z,48.50
2019-03-13T07:48:25.096Z,47.80
2019-03-13T07:50:55.375Z,47.90
2019-03-13T07:53:28.177Z,47.90
2019-03-13T07:55:58.370Z,48.00
2019-03-13T07:58:28.582Z,48.00
2019-03-13T08:01:15.378Z,48.10
2019-03-13T08:04:06.120Z,48.10
2019-03-13T08:06:38.735Z,48.10
2019-03-13T08:09:24.786Z,48.10
2019-03-13T08:11:55.015Z,48.30
2019-03-13T08:14:30.883Z,48.30
2019-03-13T08:17:03.855Z,48.30
2019-03-13T08:19:50.130Z,48.30
2019-03-13T08:22:35.299Z,48.20
2019-03-13T08:25:08.448Z,48.30
2019-03-13T08:27:41.590Z,48.30
2019-03-13T08:30:13.195Z,48.30
2019-03-13T08:32:59.614Z,48.50
2019-03-13T08:35:35.826Z,48.50
2019-03-13T08:38:08.626Z,48.50
2019-03-13T08:40:41.210Z,48.60
2019-03-13T08:43:27.681Z,48.50
2019-03-13T08:46:03.665Z,48.50
2019-03-13T08:48:36.285Z,48.60
2019-03-13T08:51:06.455Z,48.70
2019-03-13T08:53:45.288Z,48.70
2019-03-13T08:56:15.598Z,48.70
2019-03-13T08:58:48.454Z,48.70
2019-03-13T09:01:27.798Z,48.60
2019-03-13T09:04:06.546Z,48.70
2019-03-13T09:06:36.462Z,48.70
2019-03-13T09:09:10.465Z,48.70
2019-03-13T09:11:56.576Z,48.80
2019-03-13T09:14:36.109Z,48.80
2019-03-13T09:17:17.893Z,48.80
2019-03-13T09:19:47.790Z,49.50
2019-03-13T09:22:17.689Z,48.90
2019-03-13T09:24:47.958Z,49.00
2019-03-13T09:27:34.282Z,49.00
2019-03-13T09:30:04.193Z,48.90
2019-03-13T09:32:40.127Z,48.90
2019-03-13T09:35:26.513Z,49.00
2019-03-13T09:37:56.756Z,48.90
2019-03-13T09:40:26.650Z,49.00
2019-03-13T09:43:05.230Z,49.00
2019-03-13T09:45:51.678Z,49.20
2019-03-13T09:48:39.806Z,49.30
2019-03-13T09:51:21.770Z,49.40
2019-03-13T09:53:54.314Z,49.40
2019-03-13T09:56:24.206Z,49.40
2019-03-13T09:59:00.594Z,49.80
2019-03-13T10:01:39.710Z,49.70
2019-03-13T10:04:12.508Z,49.70
2019-03-13T10:06:42.409Z,49.70
2019-03-13T10:09:27.638Z,49.70
2019-03-13T10:12:16.042Z,49.60
2019-03-13T10:14:49.118Z,49.70
2019-03-13T10:17:21.676Z,49.70
2019-03-13T10:19:51.939Z,49.70
2019-03-13T10:22:24.880Z,49.80
2019-03-13T10:25:00.881Z,49.70
2019-03-13T10:27:33.482Z,49.70
2019-03-13T10:30:06.302Z,49.80
2019-03-13T10:32:36.195Z,49.80
2019-03-13T10:35:23.229Z,49.60
2019-03-13T10:37:59.102Z,49.50
2019-03-13T10:40:29.376Z,49.50
2019-03-13T10:43:08.060Z,49.50
2019-03-13T10:45:43.929Z,49.50
2019-03-13T10:48:14.155Z,49.50
2019-03-13T10:50:53.294Z,49.70
2019-03-13T10:53:32.042Z,49.70
2019-03-13T10:56:07.978Z,50.20
2019-03-13T10:58:37.871Z,49.90
2019-03-13T11:01:07.785Z,50.10
2019-03-13T11:03:55.908Z,49.80
2019-03-13T11:06:37.538Z,49.80
2019-03-13T11:09:08.008Z,49.90
2019-03-13T11:11:37.924Z,49.70
2019-03-13T11:14:23.050Z,49.40
2019-03-13T11:16:53.270Z,49.20
2019-03-13T11:19:38.207Z,49.30
2019-03-13T11:22:24.336Z,49.30
2019-03-13T11:24:54.297Z,49.30
2019-03-13T11:27:42.202Z,49.20
2019-03-13T11:30:21.032Z,48.80
2019-03-13T11:32:50.967Z,48.70
2019-03-13T11:35:23.861Z,49.60
2019-03-13T11:37:54.035Z,49.10
2019-03-13T11:40:33.170Z,49.20
2019-03-13T11:43:08.930Z,49.20
2019-03-13T11:45:55.240Z,49.30
2019-03-13T11:48:31.393Z,49.30
2019-03-13T11:51:16.358Z,49.30
2019-03-13T11:53:52.478Z,49.20
2019-03-13T11:56:22.399Z,49.30
2019-03-13T11:58:54.999Z,49.30
2019-03-13T12:01:30.593Z,49.30
2019-03-13T12:04:06.518Z,49.20
2019-03-13T12:06:48.707Z,49.30
2019-03-13T12:09:24.288Z,49.20
2019-03-13T12:11:54.191Z,49.40
2019-03-13T12:14:42.287Z,49.40
2019-03-13T12:17:21.479Z,49.30
2019-03-13T12:19:51.566Z,49.30
2019-03-13T12:22:30.676Z,49.30
2019-03-13T12:25:09.870Z,49.20
2019-03-13T12:27:40.079Z,48.90
2019-03-13T12:30:16.037Z,49.00
2019-03-13T12:32:54.859Z,49.00
2019-03-13T12:35:33.657Z,49.30
2019-03-13T12:38:09.534Z,48.80
2019-03-13T12:40:55.818Z,49.80
2019-03-13T12:43:35.078Z,56.60
2019-03-13T12:46:21.415Z,57.80
2019-03-13T12:48:51.598Z,62.60
2019-03-13T12:51:21.508Z,61.50
2019-03-13T12:53:51.824Z,63.10
2019-03-13T12:56:30.081Z,67.10
2019-03-13T12:59:03.202Z,64.20
2019-03-13T13:01:45.546Z,61.10
2019-03-13T13:04:18.383Z,58.40
2019-03-13T13:07:04.497Z,57.30
2019-03-13T13:09:50.996Z,56.60
2019-03-13T13:12:37.722Z,56.10
2019-03-13T13:15:10.757Z,55.50
2019-03-13T13:17:52.458Z,54.80
2019-03-13T13:20:23.917Z,55.30
2019-03-13T13:22:50.965Z,56.70
2019-03-13T13:25:19.761Z,55.20
2019-03-13T13:27:48.066Z,56.60
2019-03-13T13:30:16.859Z,56.40
2019-03-13T13:32:45.157Z,58.00
2019-03-13T13:35:13.410Z,56.80
2019-03-13T13:37:41.679Z,56.20
2019-03-13T13:40:12.916Z,56.20
2019-03-13T13:42:41.189Z,54.90
2019-03-13T13:45:33.027Z,54.20
2019-03-13T13:48:01.311Z,53.90
2019-03-13T13:50:29.588Z,53.50
2019-03-13T13:52:58.209Z,53.40
2019-03-13T13:55:26.470Z,53.30
2019-03-13T13:57:54.739Z,53.00
2019-03-13T14:00:23.000Z,53.00
2019-03-13T14:02:51.273Z,53.50
2019-03-13T14:05:19.655Z,52.80
2019-03-13T14:07:47.931Z,52.50
2019-03-13T14:10:16.195Z,52.40
2019-03-13T14:12:44.471Z,52.30
2019-03-13T14:15:14.308Z,52.20
2019-03-13T14:17:42.577Z,52.20
2019-03-13T14:20:15.194Z,52.40
2019-03-13T14:22:43.462Z,53.00
2019-03-13T14:25:14.861Z,52.80
2019-03-13T14:27:43.415Z,52.50
2019-03-13T14:30:20.110Z,52.40
2019-03-13T14:32:48.647Z,51.80
2019-03-13T14:35:17.086Z,51.80
2019-03-13T14:37:45.366Z,52.30
2019-03-13T14:40:18.318Z,51.60
2019-03-13T14:42:46.567Z,51.10
2019-03-13T14:45:19.058Z,50.60
2019-03-13T14:47:47.377Z,50.00
2019-03-13T14:50:20.306Z,49.70
2019-03-13T14:52:48.925Z,49.40
2019-03-13T14:55:18.138Z,49.20
2019-03-13T14:57:46.398Z,48.90
2019-03-13T15:00:25.866Z,48.70
2019-03-13T15:02:54.127Z,48.50
2019-03-13T15:05:22.675Z,48.50
2019-03-13T15:07:51.370Z,48.40
2019-03-13T15:10:21.856Z,48.30
2019-03-13T15:12:50.117Z,47.80
2019-03-13T15:15:19.827Z,47.80
2019-03-13T15:17:48.103Z,47.60
2019-03-13T15:20:22.045Z,47.50
2019-03-13T15:22:50.299Z,47.30
2019-03-13T15:25:18.650Z,47.10
2019-03-13T15:27:46.921Z,47.20
2019-03-13T15:30:18.511Z,47.10
2019-03-13T15:32:46.783Z,47.20
2019-03-13T15:35:15.439Z,47.20
2019-03-13T15:37:43.695Z,47.60
2019-03-13T15:40:19.389Z,47.80
2019-03-13T15:42:47.970Z,48.10
2019-03-13T15:45:25.301Z,48.40
2019-03-13T15:47:53.565Z,48.50
2019-03-13T15:50:21.840Z,48.60
2019-03-13T15:52:50.488Z,48.70
2019-03-13T15:55:19.401Z,48.90
2019-03-13T15:57:47.674Z,49.00
2019-03-13T16:00:24.258Z,48.90
2019-03-13T16:02:55.375Z,49.00
2019-03-13T16:05:22.787Z,49.00
2019-03-13T16:07:51.062Z,49.20
2019-03-13T16:10:20.545Z,49.10
2019-03-13T16:12:48.946Z,49.10
2019-03-13T16:15:24.388Z,49.10
2019-03-13T16:17:53.011Z,49.20
2019-03-13T16:20:21.308Z,49.30
2019-03-13T16:22:54.192Z,49.20
2019-03-13T16:25:22.455Z,49.20
2019-03-13T16:27:50.723Z,49.20
2019-03-13T16:30:21.962Z,49.20
2019-03-13T16:32:50.317Z,49.20
2019-03-13T16:35:18.571Z,49.30
2019-03-13T16:37:47.314Z,49.30
2019-03-13T16:40:17.608Z,49.30
2019-03-13T16:42:45.881Z,49.30
2019-03-13T16:45:21.740Z,49.30
2019-03-13T16:47:50.409Z,49.30
2019-03-13T16:50:24.824Z,49.20
2019-03-13T16:52:53.143Z,49.20
2019-03-13T16:55:21.646Z,51.00
2019-03-13T16:57:50.210Z,50.30
2019-03-13T17:00:25.506Z,50.10
2019-03-13T17:02:53.782Z,50.40
2019-03-13T17:05:22.061Z,50.00
2019-03-13T17:07:50.456Z,49.90
2019-03-13T17:10:24.316Z,49.80
2019-03-13T17:12:53.114Z,49.70
2019-03-13T17:15:25.662Z,49.70
2019-03-13T17:17:54.682Z,49.60
2019-03-13T17:20:26.642Z,49.60
2019-03-13T17:22:55.622Z,49.60
2019-03-13T17:25:23.897Z,49.60
2019-03-13T17:27:52.170Z,49.60
2019-03-13T17:30:26.019Z,49.40
2019-03-13T17:32:54.297Z,49.40
2019-03-13T17:35:22.566Z,49.60
2019-03-13T17:37:51.031Z,49.70
2019-03-13T17:40:21.993Z,49.80
2019-03-13T17:42:50.579Z,50.00
2019-03-13T17:45:21.642Z,50.00
2019-03-13T17:47:50.190Z,49.90
2019-03-13T17:50:19.854Z,49.90
2019-03-13T17:52:48.113Z,49.90
2019-03-13T17:55:19.642Z,50.20
2019-03-13T17:57:48.154Z,50.20
2019-03-13T18:00:22.085Z,50.30
2019-03-13T18:02:50.718Z,50.30
2019-03-13T18:05:19.166Z,50.30
2019-03-13T18:07:47.500Z,50.20
2019-03-13T18:10:19.946Z,50.20
2019-03-13T18:12:48.215Z,50.20
2019-03-13T18:15:17.790Z,50.20
2019-03-13T18:17:46.070Z,50.10
2019-03-13T18:20:22.183Z,50.40
2019-03-13T18:22:50.733Z,50.50
2019-03-13T18:25:19.002Z,52.00
2019-03-13T18:27:47.418Z,52.00
2019-03-13T18:30:21.687Z,51.30
2019-03-13T18:32:49.942Z,51.00
2019-03-13T18:35:19.615Z,50.90
2019-03-13T18:37:47.917Z,50.60
2019-03-13T18:40:21.561Z,50.80
2019-03-13T18:42:49.901Z,50.60
2019-03-13T18:45:24.115Z,50.50
2019-03-13T18:47:53.111Z,50.60
2019-03-13T18:50:22.406Z,50.50
2019-03-13T18:52:50.731Z,50.30
2019-03-13T18:55:27.610Z,50.10
2019-03-13T18:57:56.230Z,50.10
2019-03-13T19:00:35.598Z,50.00
2019-03-13T19:03:05.852Z,49.90
2019-03-13T19:05:36.627Z,49.80
2019-03-13T19:08:05.049Z,49.90
2019-03-13T19:10:34.055Z,49.80
2019-03-13T19:13:02.600Z,49.70
2019-03-13T19:15:31.150Z,49.70
2019-03-13T19:18:00.937Z,49.70
2019-03-13T19:20:30.310Z,49.60
2019-03-13T19:22:58.610Z,49.50
2019-03-13T19:25:26.885Z,49.50
2019-03-13T19:27:55.170Z,49.40
2019-03-13T19:30:31.512Z,49.40
2019-03-13T19:32:59.773Z,49.30
2019-03-13T19:35:28.129Z,49.50
2019-03-13T19:38:12.905Z,49.40
2019-03-13T19:40:41.180Z,49.30
2019-03-13T19:43:09.762Z,49.40
2019-03-13T19:45:43.686Z,49.40
2019-03-13T19:48:11.942Z,49.40
2019-03-13T19:50:40.246Z,49.40
2019-03-13T19:53:08.528Z,49.30
2019-03-13T19:55:36.920Z,49.30
2019-03-13T19:58:05.352Z,49.30
2019-03-13T20:00:33.690Z,50.00
2019-03-13T20:03:10.534Z,49.30
2019-03-13T20:05:45.254Z,49.30
2019-03-13T20:08:09.066Z,49.30
2019-03-13T20:10:37.333Z,49.40
2019-03-13T20:13:05.747Z,49.40
2019-03-13T20:15:35.297Z,49.40
2019-03-13T20:18:04.017Z,49.40
2019-03-13T20:20:32.870Z,49.30
2019-03-13T20:23:09.394Z,49.30
2019-03-13T20:25:37.646Z,49.30
2019-03-13T20:28:05.905Z,49.30
2019-03-13T20:30:34.154Z,49.40
2019-03-13T20:33:02.519Z,49.30
2019-03-13T20:35:30.782Z,49.30
2019-03-13T20:37:59.043Z,49.30
2019-03-13T20:40:27.870Z,49.30
2019-03-13T20:42:56.146Z,49.30
2019-03-13T20:45:31.622Z,49.30
2019-03-13T20:48:00.088Z,49.40
2019-03-13T20:50:36.519Z,49.30
2019-03-13T20:52:58.708Z,49.30
2019-03-13T20:55:26.963Z,49.30
2019-03-13T20:57:55.242Z,49.30
2019-03-13T21:00:27.646Z,49.30
2019-03-13T21:02:56.844Z,49.30
2019-03-13T21:05:25.530Z,49.30
2019-03-13T21:07:54.603Z,49.30
2019-03-13T21:10:22.855Z,49.30
2019-03-13T21:12:51.121Z,49.30
2019-03-13T21:15:26.528Z,49.30
2019-03-13T21:17:54.793Z,49.40
2019-03-13T21:20:23.386Z,49.30
2019-03-13T21:22:52.400Z,49.30
2019-03-13T21:25:23.330Z,49.40
2019-03-13T21:27:51.655Z,49.50
2019-03-13T21:30:22.879Z,49.50
2019-03-13T21:32:51.146Z,49.60
2019-03-13T21:35:19.481Z,49.60
2019-03-13T21:37:47.954Z,49.60
2019-03-13T21:40:23.842Z,49.60
2019-03-13T21:42:54.394Z,49.60
2019-03-13T21:45:23.148Z,49.60
2019-03-13T21:47:51.859Z,49.70
2019-03-13T21:50:20.430Z,49.70
2019-03-13T21:52:49.105Z,49.70
2019-03-13T21:55:18.097Z,49.80
2019-03-13T21:57:46.709Z,49.80
2019-03-13T22:00:18.121Z,49.70
2019-03-13T22:02:46.405Z,49.80
2019-03-13T22:05:25.028Z,49.80
2019-03-13T22:07:45.091Z,49.90
2019-03-13T22:10:14.915Z,49.90
2019-03-13T22:12:43.516Z,49.90
2019-03-13T22:15:17.131Z,49.90
2019-03-13T22:17:45.406Z,50.70
2019-03-13T22:20:15.298Z,50.50
2019-03-13T22:22:43.615Z,51.10
2019-03-13T22:25:14.285Z,51.10
2019-03-13T22:27:43.059Z,51.10
2019-03-13T22:30:24.811Z,50.90
2019-03-13T22:32:53.072Z,50.90
2019-03-13T22:35:21.377Z,50.80
2019-03-13T22:37:49.931Z,50.80
2019-03-13T22:40:18.728Z,50.90
2019-03-13T22:42:47.083Z,50.90
2019-03-13T22:45:20.311Z,50.90
2019-03-13T22:47:48.825Z,50.90
2019-03-13T22:50:21.443Z,50.90
2019-03-13T22:52:50.063Z,51.00
2019-03-13T22:55:18.335Z,51.40
2019-03-13T22:57:46.729Z,51.40
2019-03-13T23:00:28.211Z,51.50
2019-03-13T23:02:56.484Z,51.70
2019-03-13T23:05:24.739Z,51.40
2019-03-13T23:07:53.127Z,51.30
2019-03-13T23:10:32.396Z,51.20
2019-03-13T23:13:00.957Z,51.20
2019-03-13T23:15:29.220Z,51.20
2019-03-13T23:17:57.497Z,51.10
2019-03-13T23:20:25.803Z,51.20
2019-03-13T23:22:54.082Z,51.20
2019-03-13T23:25:22.341Z,51.30
2019-03-13T23:27:50.613Z,51.50
2019-03-13T23:30:19.205Z,51.50
2019-03-13T23:32:47.474Z,51.70
2019-03-13T23:35:15.734Z,51.80
2019-03-13T23:37:43.990Z,52.10
2019-03-13T23:40:12.267Z,52.20
2019-03-13T23:42:40.517Z,52.10
2019-03-13T23:45:09.379Z,51.90
2019-03-13T23:47:37.844Z,52.10
2019-03-13T23:50:14.221Z,52.10
2019-03-13T23:52:42.948Z,52.10
2019-03-13T23:55:11.503Z,52.00
2019-03-13T23:57:39.749Z,52.00
